createdAt,value
2018-08-19T00:00:33.117Z,1021.65
2018-08-19T00:01:33.355Z,1021.67
2018-08-19T00:02:33.021Z,1021.64
2018-08-19T00:03:33.210Z,1021.66
2018-08-19T00:04:33.049Z,1021.68
2018-08-19T00:05:33.293Z,1021.66
2018-08-19T00:06:32.960Z,1021.66
2018-08-19T00:07:33.326Z,1021.64
2018-08-19T00:08:33.194Z,1021.68
2018-08-19T00:09:33.166Z,1021.68
2018-08-19T00:10:33.048Z,1021.7
2018-08-19T00:11:32.989Z,1021.65
2018-08-19T00:12:33.231Z,1021.7
2018-08-19T00:13:33.062Z,1021.68
2018-08-19T00:14:33.034Z,1021.7
2018-08-19T00:15:33.013Z,1021.7
2018-08-19T00:16:33.358Z,1021.76
2018-08-19T00:17:33.327Z,1021.78
2018-08-19T00:18:33.014Z,1021.79
2018-08-19T00:19:32.962Z,1021.79
2018-08-19T00:20:33.173Z,1021.81
2018-08-19T00:21:33.040Z,1021.79
2018-08-19T00:22:33.376Z,1021.79
2018-08-19T00:23:33.235Z,1021.82
2018-08-19T00:24:33.203Z,1021.8
2018-08-19T00:25:33.176Z,1021.83
2018-08-19T00:26:33.068Z,1021.86
2018-08-19T00:27:33.091Z,1021.87
2018-08-19T00:28:33.115Z,1021.88
2018-08-19T00:29:33.000Z,1021.85
2018-08-19T00:30:33.236Z,1021.84
2018-08-19T00:31:33.034Z,1021.85
2018-08-19T00:32:33.050Z,1021.85
2018-08-19T00:33:33.279Z,1021.82
2018-08-19T00:34:33.024Z,1021.8
2018-08-19T00:35:32.988Z,1021.82
2018-08-19T00:36:33.045Z,1021.83
2018-08-19T00:37:33.193Z,1021.79
2018-08-19T00:38:33.191Z,1021.78
2018-08-19T00:39:33.020Z,1021.77
2018-08-19T00:40:33.201Z,1021.77
2018-08-19T00:41:33.088Z,1021.79
2018-08-19T00:42:33.284Z,1021.79
2018-08-19T00:43:33.297Z,1021.8
2018-08-19T00:44:33.178Z,1021.77
2018-08-19T00:45:32.999Z,1021.8
2018-08-19T00:46:33.293Z,1021.76
2018-08-19T00:47:33.146Z,1021.77
2018-08-19T00:48:33.061Z,1021.76
2018-08-19T00:49:33.018Z,1021.72
2018-08-19T00:50:33.092Z,1021.74
2018-08-19T00:51:33.239Z,1021.75
2018-08-19T00:52:33.125Z,1021.72
2018-08-19T00:53:33.020Z,1021.73
2018-08-19T00:54:33.141Z,1021.7
2018-08-19T00:55:33.136Z,1021.74
2018-08-19T00:56:33.039Z,1021.71
2018-08-19T00:57:33.043Z,1021.75
2018-08-19T00:58:33.271Z,1021.72
2018-08-19T00:59:33.288Z,1021.74
2018-08-19T01:00:33.134Z,1021.7
2018-08-19T01:01:33.248Z,1021.74
2018-08-19T01:02:33.252Z,1021.81
2018-08-19T01:03:32.976Z,1021.77
2018-08-19T01:04:33.208Z,1021.8
2018-08-19T01:05:33.111Z,1021.82
2018-08-19T01:06:33.130Z,1021.79
2018-08-19T01:07:33.007Z,1021.8
2018-08-19T01:08:33.091Z,1021.85
2018-08-19T01:09:32.919Z,1021.82
2018-08-19T01:10:32.984Z,1021.82
2018-08-19T01:11:33.236Z,1021.77
2018-08-19T01:12:33.021Z,1021.78
2018-08-19T01:13:32.985Z,1021.82
2018-08-19T01:14:33.128Z,1021.86
2018-08-19T01:15:33.269Z,1021.79
2018-08-19T01:16:33.150Z,1021.8
2018-08-19T01:17:33.275Z,1021.79
2018-08-19T01:18:33.123Z,1021.81
2018-08-19T01:19:33.082Z,1021.79
2018-08-19T01:20:33.010Z,1021.82
2018-08-19T01:21:33.105Z,1021.84
2018-08-19T01:22:33.096Z,1021.79
2018-08-19T01:23:33.078Z,1021.8
2018-08-19T01:24:32.986Z,1021.81
2018-08-19T01:25:33.172Z,1021.82
2018-08-19T01:26:33.140Z,1021.83
2018-08-19T01:27:32.986Z,1021.85
2018-08-19T01:28:33.091Z,1021.85
2018-08-19T01:29:33.236Z,1021.81
2018-08-19T01:30:33.153Z,1021.83
2018-08-19T01:31:33.589Z,1021.84
2018-08-19T01:32:33.082Z,1021.81
2018-08-19T01:33:32.889Z,1021.83
2018-08-19T01:34:33.206Z,1021.86
2018-08-19T01:35:33.105Z,1021.85
2018-08-19T01:36:32.974Z,1021.88
2018-08-19T01:37:33.054Z,1021.82
2018-08-19T01:38:33.134Z,1021.83
2018-08-19T01:39:33.255Z,1021.82
2018-08-19T01:40:33.002Z,1021.83
2018-08-19T01:41:33.087Z,1021.86
2018-08-19T01:42:33.123Z,1021.85
2018-08-19T01:43:33.014Z,1021.86
2018-08-19T01:44:33.108Z,1021.92
2018-08-19T01:51:44.634Z,1021.95
2018-08-19T01:52:44.631Z,1021.89
2018-08-19T01:53:44.410Z,1021.92
2018-08-19T01:54:44.689Z,1021.92
2018-08-19T01:55:44.440Z,1021.98
2018-08-19T01:56:46.202Z,1021.95
2018-08-19T01:57:45.446Z,1021.93
2018-08-19T01:58:45.336Z,1021.96
2018-08-19T01:59:44.485Z,1021.89
2018-08-19T02:00:45.505Z,1021.89
2018-08-19T02:01:45.014Z,1021.95
2018-08-19T02:02:45.292Z,1021.92
2018-08-19T02:03:44.779Z,1021.95
2018-08-19T02:04:45.249Z,1021.93
2018-08-19T02:05:45.420Z,1021.98
2018-08-19T02:06:45.509Z,1021.93
2018-08-19T02:07:44.927Z,1021.96
2018-08-19T02:08:45.554Z,1021.93
2018-08-19T02:09:45.446Z,1021.91
2018-08-19T02:10:44.525Z,1021.94
2018-08-19T02:11:44.504Z,1021.89
2018-08-19T02:12:45.460Z,1021.88
2018-08-19T02:13:44.497Z,1021.88
2018-08-19T02:14:45.148Z,1021.88
2018-08-19T02:15:45.498Z,1021.85
2018-08-19T02:16:44.394Z,1021.83
2018-08-19T02:17:45.255Z,1021.86
2018-08-19T02:18:44.593Z,1021.87
2018-08-19T02:19:45.270Z,1021.8
2018-08-19T02:20:44.959Z,1021.84
2018-08-19T02:21:44.462Z,1021.83
2018-08-19T02:22:45.365Z,1021.84
2018-08-19T02:23:44.540Z,1021.84
2018-08-19T02:24:45.443Z,1021.88
2018-08-19T02:25:44.284Z,1021.83
2018-08-19T02:26:44.485Z,1021.87
2018-08-19T02:27:44.492Z,1021.89
2018-08-19T02:28:44.560Z,1021.88
2018-08-19T02:29:45.446Z,1021.87
2018-08-19T02:30:45.373Z,1021.91
2018-08-19T02:31:44.461Z,1021.89
2018-08-19T02:32:45.480Z,1021.92
2018-08-19T02:33:45.496Z,1021.93
2018-08-19T02:34:45.306Z,1021.89
2018-08-19T02:35:44.981Z,1021.91
2018-08-19T02:36:45.455Z,1021.89
2018-08-19T02:37:44.501Z,1021.92
2018-08-19T02:38:45.072Z,1021.89
2018-08-19T02:39:45.095Z,1021.93
2018-08-19T02:40:44.541Z,1021.9
2018-08-19T02:41:45.047Z,1021.9
2018-08-19T02:42:44.512Z,1021.93
2018-08-19T02:43:44.478Z,1021.91
2018-08-19T02:44:45.516Z,1021.96
2018-08-19T02:45:45.495Z,1021.98
2018-08-19T02:46:45.509Z,1022
2018-08-19T02:47:45.014Z,1021.97
2018-08-19T02:48:45.466Z,1021.94
2018-08-19T02:49:45.124Z,1021.93
2018-08-19T02:50:45.308Z,1021.92
2018-08-19T02:51:45.032Z,1021.94
2018-08-19T02:52:44.574Z,1021.96
2018-08-19T02:53:44.399Z,1021.94
2018-08-19T02:54:44.906Z,1021.9
2018-08-19T02:55:44.717Z,1021.89
2018-08-19T02:56:44.818Z,1021.91
2018-08-19T02:57:44.662Z,1021.89
2018-08-19T02:58:44.625Z,1021.88
2018-08-19T02:59:44.688Z,1021.85
2018-08-19T03:00:44.678Z,1021.88
2018-08-19T03:01:44.484Z,1021.86
2018-08-19T03:02:44.743Z,1021.91
2018-08-19T03:03:44.527Z,1021.9
2018-08-19T03:04:44.782Z,1021.84
2018-08-19T03:05:44.772Z,1021.85
2018-08-19T03:06:44.551Z,1021.87
2018-08-19T03:07:44.508Z,1021.87
2018-08-19T03:08:44.514Z,1021.85
2018-08-19T03:09:44.565Z,1021.84
2018-08-19T03:10:44.479Z,1021.88
2018-08-19T03:11:44.698Z,1021.88
2018-08-19T03:12:44.762Z,1021.83
2018-08-19T03:13:44.799Z,1021.89
2018-08-19T03:14:44.491Z,1021.87
2018-08-19T03:15:44.536Z,1021.83
2018-08-19T03:16:44.657Z,1021.84
2018-08-19T03:17:44.492Z,1021.79
2018-08-19T03:18:44.559Z,1021.83
2018-08-19T03:19:44.485Z,1021.87
2018-08-19T03:20:44.615Z,1021.83
2018-08-19T03:21:44.653Z,1021.85
2018-08-19T03:22:44.624Z,1021.8
2018-08-19T03:23:44.591Z,1021.81
2018-08-19T03:24:44.593Z,1021.83
2018-08-19T03:25:44.509Z,1021.84
2018-08-19T03:26:44.693Z,1021.87
2018-08-19T03:27:44.617Z,1021.87
2018-08-19T03:28:44.638Z,1021.86
2018-08-19T03:29:44.493Z,1021.88
2018-08-19T03:30:44.582Z,1021.93
2018-08-19T03:31:44.519Z,1021.88
2018-08-19T03:32:44.546Z,1021.86
2018-08-19T03:33:44.607Z,1021.85
2018-08-19T03:34:44.717Z,1021.89
2018-08-19T03:35:44.507Z,1021.86
2018-08-19T03:36:44.545Z,1021.89
2018-08-19T03:37:44.730Z,1021.89
2018-08-19T03:38:44.658Z,1021.9
2018-08-19T03:39:44.601Z,1021.96
2018-08-19T03:40:44.715Z,1021.93
2018-08-19T03:41:44.509Z,1021.95
2018-08-19T03:42:44.591Z,1021.93
2018-08-19T03:43:46.020Z,1021.9
2018-08-19T03:44:44.708Z,1021.92
2018-08-19T03:45:46.303Z,1021.93
2018-08-19T03:46:44.592Z,1021.92
2018-08-19T03:47:44.737Z,1021.91
2018-08-19T03:48:44.695Z,1021.93
2018-08-19T03:49:44.714Z,1021.91
2018-08-19T03:50:44.570Z,1021.93
2018-08-19T03:51:44.523Z,1021.99
2018-08-19T03:52:44.660Z,1021.96
2018-08-19T03:53:44.687Z,1021.96
2018-08-19T03:54:44.487Z,1021.93
2018-08-19T03:55:44.411Z,1021.93
2018-08-19T03:56:44.784Z,1021.95
2018-08-19T03:57:44.804Z,1021.99
2018-08-19T03:58:44.814Z,1022
2018-08-19T03:59:44.829Z,1021.99
2018-08-19T04:00:44.427Z,1022.02
2018-08-19T04:01:44.963Z,1022.07
2018-08-19T04:02:44.804Z,1022.06
2018-08-19T04:03:44.901Z,1022.05
2018-08-19T04:04:44.971Z,1022.06
2018-08-19T04:05:44.801Z,1022.07
2018-08-19T04:06:44.754Z,1022.06
2018-08-19T04:07:44.822Z,1022.04
2018-08-19T04:08:44.888Z,1022.01
2018-08-19T04:09:44.434Z,1022.03
2018-08-19T04:10:44.802Z,1022.01
2018-08-19T04:11:44.467Z,1022.02
2018-08-19T04:12:44.463Z,1022.03
2018-08-19T04:13:45.100Z,1022.07
2018-08-19T04:14:44.885Z,1022.04
2018-08-19T04:15:44.448Z,1022.07
2018-08-19T04:16:44.493Z,1022.07
2018-08-19T04:17:44.899Z,1022.05
2018-08-19T04:18:44.831Z,1022.02
2018-08-19T04:19:44.443Z,1021.99
2018-08-19T04:20:44.451Z,1021.99
2018-08-19T04:21:44.445Z,1022
2018-08-19T04:22:44.934Z,1022
2018-08-19T04:23:44.813Z,1022.03
2018-08-19T04:24:45.222Z,1022.01
2018-08-19T04:25:44.970Z,1021.99
2018-08-19T04:26:44.911Z,1021.95
2018-08-19T04:27:44.480Z,1022
2018-08-19T04:28:44.957Z,1021.96
2018-08-19T04:29:44.855Z,1021.97
2018-08-19T04:30:44.822Z,1021.92
2018-08-19T04:31:44.981Z,1021.94
2018-08-19T04:32:44.805Z,1021.93
2018-08-19T04:33:44.925Z,1021.95
2018-08-19T04:34:44.464Z,1021.91
2018-08-19T04:35:44.895Z,1021.93
2018-08-19T04:36:44.437Z,1021.92
2018-08-19T04:37:44.938Z,1021.89
2018-08-19T04:38:44.883Z,1021.93
2018-08-19T04:39:44.433Z,1021.9
2018-08-19T04:40:44.903Z,1021.92
2018-08-19T04:41:44.461Z,1021.97
2018-08-19T04:42:44.882Z,1021.99
2018-08-19T04:43:45.204Z,1021.99
2018-08-19T04:44:44.780Z,1022.03
2018-08-19T04:45:44.378Z,1021.98
2018-08-19T04:46:44.792Z,1021.95
2018-08-19T04:47:44.849Z,1021.96
2018-08-19T04:48:44.927Z,1021.98
2018-08-19T04:49:45.185Z,1022.02
2018-08-19T04:50:44.848Z,1021.97
2018-08-19T04:51:44.935Z,1022.03
2018-08-19T04:52:44.902Z,1022.03
2018-08-19T04:53:44.773Z,1022.02
2018-08-19T04:54:44.485Z,1022.07
2018-08-19T04:55:44.515Z,1022.08
2018-08-19T04:56:44.537Z,1022.11
2018-08-19T04:57:44.709Z,1022.12
2018-08-19T04:58:44.501Z,1022.12
2018-08-19T04:59:44.510Z,1022.14
2018-08-19T05:00:44.510Z,1022.11
2018-08-19T05:01:45.492Z,1022.17
2018-08-19T05:02:44.755Z,1022.15
2018-08-19T05:03:44.563Z,1022.16
2018-08-19T05:04:44.563Z,1022.19
2018-08-19T05:05:44.436Z,1022.23
2018-08-19T05:06:44.480Z,1022.21
2018-08-19T05:07:44.713Z,1022.2
2018-08-19T05:08:44.590Z,1022.21
2018-08-19T05:09:44.529Z,1022.2
2018-08-19T05:10:44.728Z,1022.23
2018-08-19T05:11:44.501Z,1022.19
2018-08-19T05:12:44.462Z,1022.19
2018-08-19T05:13:44.521Z,1022.21
2018-08-19T05:14:44.691Z,1022.22
2018-08-19T05:15:44.679Z,1022.21
2018-08-19T05:16:44.602Z,1022.19
2018-08-19T05:17:44.493Z,1022.16
2018-08-19T05:18:44.779Z,1022.16
2018-08-19T05:19:44.457Z,1022.13
2018-08-19T05:20:44.541Z,1022.17
2018-08-19T05:21:44.503Z,1022.08
2018-08-19T05:22:44.513Z,1022.11
2018-08-19T05:23:44.734Z,1022.08
2018-08-19T05:24:44.529Z,1022.07
2018-08-19T05:25:44.771Z,1022.05
2018-08-19T05:26:44.577Z,1022.04
2018-08-19T05:27:44.753Z,1022.04
2018-08-19T05:28:44.375Z,1022.06
2018-08-19T05:29:44.627Z,1022.06
2018-08-19T05:30:44.413Z,1022.07
2018-08-19T05:31:44.478Z,1022.08
2018-08-19T05:32:44.386Z,1022.09
2018-08-19T05:33:44.630Z,1022.11
2018-08-19T05:34:44.562Z,1022.12
2018-08-19T05:35:44.692Z,1022.15
2018-08-19T05:36:44.518Z,1022.15
2018-08-19T05:37:44.586Z,1022.16
2018-08-19T05:38:44.663Z,1022.15
2018-08-19T05:39:44.432Z,1022.14
2018-08-19T05:40:44.720Z,1022.18
2018-08-19T05:41:44.501Z,1022.17
2018-08-19T05:42:44.717Z,1022.2
2018-08-19T05:43:44.697Z,1022.19
2018-08-19T05:44:44.478Z,1022.21
2018-08-19T05:45:44.755Z,1022.23
2018-08-19T05:46:44.540Z,1022.29
2018-08-19T05:47:44.694Z,1022.3
2018-08-19T05:48:44.470Z,1022.26
2018-08-19T05:49:44.691Z,1022.29
2018-08-19T05:50:44.711Z,1022.3
2018-08-19T05:51:44.567Z,1022.28
2018-08-19T05:52:44.467Z,1022.24
2018-08-19T05:53:44.719Z,1022.28
2018-08-19T05:54:44.740Z,1022.27
2018-08-19T05:55:45.026Z,1022.26
2018-08-19T05:56:44.829Z,1022.26
2018-08-19T05:57:44.434Z,1022.22
2018-08-19T05:58:44.688Z,1022.22
2018-08-19T05:59:44.486Z,1022.27
2018-08-19T06:00:44.646Z,1022.24
2018-08-19T06:01:44.461Z,1022.21
2018-08-19T06:02:44.688Z,1022.26
2018-08-19T06:03:44.352Z,1022.27
2018-08-19T06:04:44.313Z,1022.2
2018-08-19T06:05:44.411Z,1022.21
2018-08-19T06:06:44.380Z,1022.27
2018-08-19T06:07:44.645Z,1022.25
2018-08-19T06:08:44.554Z,1022.27
2018-08-19T06:09:44.633Z,1022.28
2018-08-19T06:10:44.450Z,1022.28
2018-08-19T06:11:44.442Z,1022.35
2018-08-19T06:12:44.416Z,1022.31
2018-08-19T06:13:44.394Z,1022.33
2018-08-19T06:14:44.433Z,1022.3
2018-08-19T06:15:44.583Z,1022.29
2018-08-19T06:16:44.628Z,1022.28
2018-08-19T06:17:44.470Z,1022.29
2018-08-19T06:18:44.477Z,1022.28
2018-08-19T06:19:44.439Z,1022.31
2018-08-19T06:20:44.427Z,1022.3
2018-08-19T06:21:44.623Z,1022.31
2018-08-19T06:22:44.694Z,1022.31
2018-08-19T06:23:44.722Z,1022.35
2018-08-19T06:24:44.940Z,1022.36
2018-08-19T06:25:44.520Z,1022.33
2018-08-19T06:26:44.576Z,1022.36
2018-08-19T06:27:44.644Z,1022.32
2018-08-19T06:28:44.444Z,1022.36
2018-08-19T06:29:44.714Z,1022.35
2018-08-19T06:30:45.558Z,1022.39
2018-08-19T06:31:44.568Z,1022.38
2018-08-19T06:32:44.580Z,1022.38
2018-08-19T06:33:45.493Z,1022.38
2018-08-19T06:34:44.986Z,1022.41
2018-08-19T06:35:44.484Z,1022.4
2018-08-19T06:36:44.769Z,1022.41
2018-08-19T06:37:44.381Z,1022.42
2018-08-19T06:38:44.406Z,1022.4
2018-08-19T06:39:44.448Z,1022.4
2018-08-19T06:40:44.492Z,1022.38
2018-08-19T06:41:44.638Z,1022.41
2018-08-19T06:42:44.815Z,1022.37
2018-08-19T06:43:44.683Z,1022.39
2018-08-19T06:44:44.505Z,1022.43
2018-08-19T06:45:44.686Z,1022.35
2018-08-19T06:46:44.826Z,1022.36
2018-08-19T06:47:44.417Z,1022.39
2018-08-19T06:48:44.499Z,1022.39
2018-08-19T06:49:44.480Z,1022.42
2018-08-19T06:50:44.485Z,1022.41
2018-08-19T06:51:44.547Z,1022.36
2018-08-19T06:52:44.819Z,1022.4
2018-08-19T06:53:44.817Z,1022.35
2018-08-19T06:54:45.060Z,1022.38
2018-08-19T06:55:44.394Z,1022.37
2018-08-19T06:56:44.526Z,1022.35
2018-08-19T06:57:44.397Z,1022.35
2018-08-19T06:58:44.445Z,1022.36
2018-08-19T06:59:44.710Z,1022.37
2018-08-19T07:00:44.533Z,1022.39
2018-08-19T07:01:44.566Z,1022.4
2018-08-19T07:02:44.773Z,1022.4
2018-08-19T07:03:45.237Z,1022.36
2018-08-19T07:04:44.744Z,1022.39
2018-08-19T07:05:44.387Z,1022.4
2018-08-19T07:06:44.342Z,1022.39
2018-08-19T07:07:44.448Z,1022.39
2018-08-19T07:08:44.400Z,1022.41
2018-08-19T07:09:44.501Z,1022.42
2018-08-19T07:10:44.787Z,1022.43
2018-08-19T07:11:44.728Z,1022.44
2018-08-19T07:12:44.783Z,1022.41
2018-08-19T07:13:44.745Z,1022.45
2018-08-19T07:14:44.378Z,1022.43
2018-08-19T07:15:44.738Z,1022.45
2018-08-19T07:16:44.497Z,1022.47
2018-08-19T07:17:44.622Z,1022.44
2018-08-19T07:18:44.898Z,1022.41
2018-08-19T07:19:44.486Z,1022.43
2018-08-19T07:20:44.488Z,1022.48
2018-08-19T07:21:44.629Z,1022.47
2018-08-19T07:22:44.424Z,1022.47
2018-08-19T07:23:44.647Z,1022.49
2018-08-19T07:24:44.578Z,1022.47
2018-08-19T07:25:44.608Z,1022.45
2018-08-19T07:26:44.494Z,1022.48
2018-08-19T07:27:44.533Z,1022.49
2018-08-19T07:28:44.665Z,1022.43
2018-08-19T07:29:44.726Z,1022.48
2018-08-19T07:30:44.507Z,1022.45
2018-08-19T07:31:44.462Z,1022.48
2018-08-19T07:32:44.345Z,1022.49
2018-08-19T07:33:44.703Z,1022.46
2018-08-19T07:34:44.406Z,1022.5
2018-08-19T07:35:44.508Z,1022.5
2018-08-19T07:36:44.738Z,1022.49
2018-08-19T07:37:44.773Z,1022.56
2018-08-19T07:38:44.516Z,1022.53
2018-08-19T07:39:44.632Z,1022.52
2018-08-19T07:40:44.634Z,1022.53
2018-08-19T07:41:44.384Z,1022.51
2018-08-19T07:42:44.749Z,1022.53
2018-08-19T07:43:44.796Z,1022.54
2018-08-19T07:44:44.508Z,1022.54
2018-08-19T07:45:44.620Z,1022.51
2018-08-19T07:46:44.462Z,1022.5
2018-08-19T07:47:44.549Z,1022.53
2018-08-19T07:48:44.750Z,1022.54
2018-08-19T07:49:44.713Z,1022.49
2018-08-19T07:50:44.528Z,1022.51
2018-08-19T07:51:45.289Z,1022.46
2018-08-19T07:52:44.555Z,1022.49
2018-08-19T07:53:44.538Z,1022.46
2018-08-19T07:54:44.697Z,1022.47
2018-08-19T07:55:44.754Z,1022.47
2018-08-19T07:56:44.492Z,1022.47
2018-08-19T07:57:44.676Z,1022.51
2018-08-19T07:58:44.505Z,1022.49
2018-08-19T07:59:44.508Z,1022.52
2018-08-19T08:00:44.508Z,1022.5
2018-08-19T08:01:44.481Z,1022.5
2018-08-19T08:02:44.393Z,1022.49
2018-08-19T08:03:44.433Z,1022.49
2018-08-19T08:04:44.720Z,1022.52
2018-08-19T08:05:44.532Z,1022.53
2018-08-19T08:06:44.544Z,1022.53
2018-08-19T08:07:44.616Z,1022.53
2018-08-19T08:08:44.406Z,1022.53
2018-08-19T08:09:44.713Z,1022.52
2018-08-19T08:10:44.810Z,1022.57
2018-08-19T08:11:44.667Z,1022.55
2018-08-19T08:12:44.444Z,1022.54
2018-08-19T08:13:44.846Z,1022.62
2018-08-19T08:14:44.468Z,1022.54
2018-08-19T08:15:44.820Z,1022.58
2018-08-19T08:16:44.402Z,1022.59
2018-08-19T08:17:44.464Z,1022.57
2018-08-19T08:18:44.492Z,1022.61
2018-08-19T08:19:44.484Z,1022.6
2018-08-19T08:20:44.679Z,1022.62
2018-08-19T08:21:44.827Z,1022.61
2018-08-19T08:22:44.715Z,1022.57
2018-08-19T08:23:44.373Z,1022.57
2018-08-19T08:24:44.681Z,1022.61
2018-08-19T08:25:44.706Z,1022.63
2018-08-19T08:26:44.419Z,1022.63
2018-08-19T08:27:44.667Z,1022.63
2018-08-19T08:28:44.722Z,1022.64
2018-08-19T08:29:44.547Z,1022.64
2018-08-19T08:30:44.694Z,1022.6
2018-08-19T08:31:44.781Z,1022.65
2018-08-19T08:32:44.459Z,1022.6
2018-08-19T08:33:44.495Z,1022.59
2018-08-19T08:34:44.345Z,1022.62
2018-08-19T08:35:44.452Z,1022.63
2018-08-19T08:36:44.596Z,1022.64
2018-08-19T08:37:44.363Z,1022.61
2018-08-19T08:38:44.472Z,1022.63
2018-08-19T08:39:44.427Z,1022.65
2018-08-19T08:40:44.916Z,1022.66
2018-08-19T08:41:44.632Z,1022.66
2018-08-19T08:42:44.399Z,1022.66
2018-08-19T08:43:44.632Z,1022.61
2018-08-19T08:44:44.683Z,1022.58
2018-08-19T08:45:44.501Z,1022.6
2018-08-19T08:46:44.338Z,1022.6
2018-08-19T08:47:45.093Z,1022.57
2018-08-19T08:48:44.408Z,1022.56
2018-08-19T08:49:44.370Z,1022.56
2018-08-19T08:50:44.498Z,1022.54
2018-08-19T08:51:44.487Z,1022.49
2018-08-19T08:52:44.668Z,1022.49
2018-08-19T08:53:44.595Z,1022.52
2018-08-19T08:54:44.664Z,1022.47
2018-08-19T08:55:44.384Z,1022.5
2018-08-19T08:56:44.422Z,1022.48
2018-08-19T08:57:44.446Z,1022.5
2018-08-19T08:58:44.561Z,1022.47
2018-08-19T08:59:44.447Z,1022.45
2018-08-19T09:00:44.406Z,1022.45
2018-08-19T09:01:44.706Z,1022.46
2018-08-19T09:02:44.741Z,1022.44
2018-08-19T09:03:44.442Z,1022.43
2018-08-19T09:04:44.336Z,1022.45
2018-08-19T09:05:44.483Z,1022.45
2018-08-19T09:06:44.609Z,1022.46
2018-08-19T09:07:44.689Z,1022.45
2018-08-19T09:08:44.506Z,1022.47
2018-08-19T09:09:44.710Z,1022.46
2018-08-19T09:10:44.763Z,1022.4
2018-08-19T09:11:44.546Z,1022.37
2018-08-19T09:12:44.726Z,1022.39
2018-08-19T09:13:44.763Z,1022.39
2018-08-19T09:14:44.552Z,1022.36
2018-08-19T09:15:44.435Z,1022.35
2018-08-19T09:16:44.412Z,1022.33
2018-08-19T09:17:44.508Z,1022.3
2018-08-19T09:18:44.543Z,1022.32
2018-08-19T09:19:44.753Z,1022.32
2018-08-19T09:20:44.474Z,1022.33
2018-08-19T09:21:44.467Z,1022.3
2018-08-19T09:22:44.266Z,1022.29
2018-08-19T09:23:44.555Z,1022.26
2018-08-19T09:24:44.413Z,1022.27
2018-08-19T09:25:44.476Z,1022.25
2018-08-19T09:26:44.535Z,1022.24
2018-08-19T09:27:44.642Z,1022.26
2018-08-19T09:28:44.579Z,1022.23
2018-08-19T09:29:44.470Z,1022.2
2018-08-19T09:30:44.356Z,1022.22
2018-08-19T09:31:44.358Z,1022.2
2018-08-19T09:32:44.968Z,1022.23
2018-08-19T09:33:44.515Z,1022.19
2018-08-19T09:34:44.478Z,1022.18
2018-08-19T09:35:44.850Z,1022.24
2018-08-19T09:36:44.452Z,1022.19
2018-08-19T09:37:44.525Z,1022.16
2018-08-19T09:38:44.608Z,1022.19
2018-08-19T09:39:44.762Z,1022.18
2018-08-19T09:40:44.726Z,1022.15
2018-08-19T09:41:44.655Z,1022.11
2018-08-19T09:42:44.593Z,1022.09
2018-08-19T09:43:44.371Z,1022.11
2018-08-19T09:44:44.851Z,1022.09
2018-08-19T09:45:44.669Z,1022.1
2018-08-19T09:46:44.495Z,1022.12
2018-08-19T09:47:44.758Z,1022.07
2018-08-19T09:48:44.639Z,1022.09
2018-08-19T09:49:44.345Z,1022.1
2018-08-19T09:50:44.645Z,1022.08
2018-08-19T09:51:44.464Z,1022.08
2018-08-19T09:52:44.420Z,1022.11
2018-08-19T09:53:44.594Z,1022.1
2018-08-19T09:54:44.481Z,1022.08
2018-08-19T09:55:44.591Z,1022.05
2018-08-19T09:56:44.546Z,1022.06
2018-08-19T09:57:44.545Z,1022.06
2018-08-19T09:58:44.400Z,1022.04
2018-08-19T09:59:44.459Z,1022.04
2018-08-19T10:00:44.429Z,1022.09
2018-08-19T10:01:44.430Z,1022.04
2018-08-19T10:02:44.555Z,1022
2018-08-19T10:03:44.656Z,1022
2018-08-19T10:04:44.610Z,1021.98
2018-08-19T10:05:44.715Z,1021.94
2018-08-19T10:06:44.710Z,1021.93
2018-08-19T10:07:44.597Z,1021.93
2018-08-19T10:08:44.784Z,1021.95
2018-08-19T10:09:44.535Z,1021.91
2018-08-19T10:10:44.437Z,1021.91
2018-08-19T10:11:44.657Z,1021.86
2018-08-19T10:12:44.869Z,1021.83
2018-08-19T10:13:45.049Z,1021.87
2018-08-19T10:14:44.800Z,1021.83
2018-08-19T10:15:44.515Z,1021.81
2018-08-19T10:16:44.431Z,1021.78
2018-08-19T10:17:44.664Z,1021.77
2018-08-19T10:18:44.377Z,1021.79
2018-08-19T10:19:44.651Z,1021.79
2018-08-19T10:20:44.447Z,1021.76
2018-08-19T10:21:44.557Z,1021.79
2018-08-19T10:22:44.562Z,1021.8
2018-08-19T10:23:44.545Z,1021.77
2018-08-19T10:24:44.327Z,1021.72
2018-08-19T10:25:44.339Z,1021.7
2018-08-19T10:26:44.537Z,1021.69
2018-08-19T10:27:44.585Z,1021.73
2018-08-19T10:28:44.826Z,1021.74
2018-08-19T10:29:44.559Z,1021.71
2018-08-19T10:30:44.474Z,1021.67
2018-08-19T10:31:44.742Z,1021.7
2018-08-19T10:32:44.574Z,1021.69
2018-08-19T10:33:44.576Z,1021.67
2018-08-19T10:34:44.539Z,1021.62
2018-08-19T10:35:44.817Z,1021.67
2018-08-19T10:36:44.435Z,1021.66
2018-08-19T10:37:44.810Z,1021.66
2018-08-19T10:38:44.543Z,1021.63
2018-08-19T10:39:44.310Z,1021.65
2018-08-19T10:40:44.394Z,1021.64
2018-08-19T10:41:44.590Z,1021.65
2018-08-19T10:42:44.421Z,1021.61
2018-08-19T10:43:44.334Z,1021.64
2018-08-19T10:44:44.550Z,1021.64
2018-08-19T10:45:44.884Z,1021.57
2018-08-19T10:46:44.488Z,1021.58
2018-08-19T10:47:44.772Z,1021.54
2018-08-19T10:48:44.434Z,1021.54
2018-08-19T10:49:44.670Z,1021.47
2018-08-19T10:50:44.398Z,1021.48
2018-08-19T10:51:44.705Z,1021.46
2018-08-19T10:52:44.343Z,1021.48
2018-08-19T10:53:44.765Z,1021.49
2018-08-19T10:54:44.824Z,1021.42
2018-08-19T10:55:44.467Z,1021.47
2018-08-19T10:56:44.605Z,1021.44
2018-08-19T10:57:44.489Z,1021.43
2018-08-19T10:58:44.717Z,1021.43
2018-08-19T10:59:44.440Z,1021.38
2018-08-19T11:00:44.456Z,1021.37
2018-08-19T11:01:44.388Z,1021.36
2018-08-19T11:02:44.414Z,1021.34
2018-08-19T11:03:44.616Z,1021.33
2018-08-19T11:04:44.432Z,1021.35
2018-08-19T11:05:44.510Z,1021.28
2018-08-19T11:06:44.938Z,1021.28
2018-08-19T11:07:44.548Z,1021.25
2018-08-19T11:08:44.430Z,1021.25
2018-08-19T11:09:44.668Z,1021.26
2018-08-19T11:10:44.276Z,1021.22
2018-08-19T11:11:44.528Z,1021.25
2018-08-19T11:12:44.431Z,1021.22
2018-08-19T11:13:44.417Z,1021.25
2018-08-19T11:14:44.683Z,1021.22
2018-08-19T11:15:44.447Z,1021.18
2018-08-19T11:16:44.479Z,1021.17
2018-08-19T11:17:44.642Z,1021.13
2018-08-19T11:18:44.552Z,1021.09
2018-08-19T11:19:44.249Z,1021.12
2018-08-19T11:20:44.546Z,1021.07
2018-08-19T11:21:44.466Z,1021.1
2018-08-19T11:22:44.403Z,1021.07
2018-08-19T11:23:44.439Z,1021.07
2018-08-19T11:24:44.471Z,1021.02
2018-08-19T11:25:44.451Z,1021.05
2018-08-19T11:26:44.519Z,1021.06
2018-08-19T11:27:44.531Z,1021.02
2018-08-19T11:28:45.344Z,1021.05
2018-08-19T11:29:44.542Z,1021.03
2018-08-19T11:30:44.434Z,1021
2018-08-19T11:31:44.580Z,1020.96
2018-08-19T11:32:44.360Z,1020.92
2018-08-19T11:33:44.644Z,1020.97
2018-08-19T11:34:44.700Z,1020.95
2018-08-19T11:35:44.612Z,1020.96
2018-08-19T11:36:44.595Z,1020.94
2018-08-19T11:37:44.409Z,1020.98
2018-08-19T11:38:44.774Z,1020.95
2018-08-19T11:39:44.535Z,1020.95
2018-08-19T11:40:44.342Z,1021
2018-08-19T11:41:44.544Z,1020.98
2018-08-19T11:42:44.331Z,1020.94
2018-08-19T11:43:44.552Z,1020.94
2018-08-19T11:44:44.489Z,1020.97
2018-08-19T11:45:44.471Z,1020.92
2018-08-19T11:46:44.791Z,1020.91
2018-08-19T11:47:44.511Z,1020.94
2018-08-19T11:48:44.996Z,1020.98
2018-08-19T11:49:44.473Z,1020.92
2018-08-19T11:50:44.474Z,1020.93
2018-08-19T11:51:44.324Z,1020.92
2018-08-19T11:52:44.514Z,1020.93
2018-08-19T11:53:44.539Z,1020.89
2018-08-19T11:54:44.403Z,1020.85
2018-08-19T11:55:44.385Z,1020.87
2018-08-19T11:56:44.565Z,1020.89
2018-08-19T11:57:44.424Z,1020.84
2018-08-19T11:58:44.360Z,1020.82
2018-08-19T11:59:44.769Z,1020.82
2018-08-19T12:00:44.349Z,1020.81
2018-08-19T12:01:44.734Z,1020.81
2018-08-19T12:02:44.696Z,1020.83
2018-08-19T12:03:44.426Z,1020.85
2018-08-19T12:04:44.655Z,1020.82
2018-08-19T12:05:44.429Z,1020.82
2018-08-19T12:06:44.549Z,1020.82
2018-08-19T12:07:44.547Z,1020.79
2018-08-19T12:08:44.438Z,1020.79
2018-08-19T12:09:44.441Z,1020.81
2018-08-19T12:10:44.597Z,1020.77
2018-08-19T12:11:44.542Z,1020.73
2018-08-19T12:12:44.562Z,1020.74
2018-08-19T12:13:44.530Z,1020.72
2018-08-19T12:14:44.540Z,1020.67